OYAJP EKYT-EKVD
Flight info
| Callsign | OYAJP |
|---|---|
| Flight time | 0h 45m |
| Altitude | 16000 |
| Route | RADIS P615 LUTUS |
| Aircraft | B350/L-SBGRW/S |
Departure
| Time | 2026-04-28 15:13 |
|---|---|
| Airport | Aalborg Airport (EKYT) |
Arrival
| Time | 2026-04-28 15:58 |
|---|---|
| Airport | Kolding Vamdrup Airfield (EKVD) |
| Time | Latitude | Longitude | Altitude | Speed | Heading |
|---|---|---|---|---|---|
| 2026-04-28 14:51 | 57.08543 | 9.86790 | 15 ft | 0 kts | 142° |
| 2026-04-28 15:05 | 57.08543 | 9.86791 | 15 ft | 2 kts | 142° |
| 2026-04-28 15:05 | 57.08565 | 9.86883 | 15 ft | 14 kts | 51° |
| 2026-04-28 15:06 | 57.08592 | 9.86945 | 15 ft | 5 kts | 51° |
| 2026-04-28 15:06 | 57.08635 | 9.86913 | 15 ft | 11 kts | 315° |
| 2026-04-28 15:06 | 57.08701 | 9.86802 | 15 ft | 14 kts | 321° |
| 2026-04-28 15:06 | 57.08789 | 9.86672 | 15 ft | 18 kts | 322° |
| 2026-04-28 15:07 | 57.08891 | 9.86521 | 15 ft | 20 kts | 320° |
| 2026-04-28 15:07 | 57.09003 | 9.86362 | 15 ft | 21 kts | 322° |
| 2026-04-28 15:07 | 57.09123 | 9.86194 | 15 ft | 22 kts | 323° |
| 2026-04-28 15:07 | 57.09250 | 9.86018 | 15 ft | 20 kts | 323° |
| 2026-04-28 15:08 | 57.09314 | 9.85929 | 15 ft | 7 kts | 339° |
| 2026-04-28 15:08 | 57.09351 | 9.85972 | 15 ft | 10 kts | 84° |
| 2026-04-28 15:08 | 57.09363 | 9.86153 | 15 ft | 18 kts | 78° |
| 2026-04-28 15:08 | 57.09377 | 9.86411 | 15 ft | 23 kts | 83° |
| 2026-04-28 15:09 | 57.09394 | 9.86668 | 15 ft | 12 kts | 84° |
| 2026-04-28 15:09 | 57.09429 | 9.86775 | 15 ft | 10 kts | 352° |
| 2026-04-28 15:09 | 57.09505 | 9.86758 | 15 ft | 4 kts | 354° |
| 2026-04-28 15:09 | 57.09506 | 9.86758 | 15 ft | 0 kts | 353° |
| 2026-04-28 15:11 | 57.09507 | 9.86758 | 15 ft | 1 kts | 354° |
| 2026-04-28 15:12 | 57.09526 | 9.86754 | 15 ft | 6 kts | 353° |
| 2026-04-28 15:12 | 57.09585 | 9.86721 | 15 ft | 11 kts | 303° |
| 2026-04-28 15:12 | 57.09583 | 9.86556 | 15 ft | 19 kts | 261° |
| 2026-04-28 15:12 | 57.09532 | 9.85811 | 15 ft | 93 kts | 263° |
| 2026-04-28 15:13 | 57.09443 | 9.84420 | 206 ft | 115 kts | 269° |
| 2026-04-28 15:13 | 57.09369 | 9.82963 | 665 ft | 118 kts | 271° |
| 2026-04-28 15:13 | 57.09230 | 9.81375 | 964 ft | 130 kts | 267° |
| 2026-04-28 15:13 | 57.09107 | 9.79694 | 1408 ft | 133 kts | 269° |
| 2026-04-28 15:14 | 57.08988 | 9.78048 | 1977 ft | 127 kts | 268° |
| 2026-04-28 15:14 | 57.08811 | 9.76473 | 2544 ft | 126 kts | 257° |
| 2026-04-28 15:14 | 57.08161 | 9.75157 | 2605 ft | 162 kts | 201° |
| 2026-04-28 15:14 | 57.06995 | 9.75315 | 2726 ft | 178 kts | 164° |
| 2026-04-28 15:15 | 57.05779 | 9.75927 | 2867 ft | 184 kts | 164° |
| 2026-04-28 15:15 | 57.04957 | 9.76354 | 2940 ft | 187 kts | 165° |
| 2026-04-28 15:15 | 57.03236 | 9.77137 | 3162 ft | 195 kts | 167° |
| 2026-04-28 15:15 | 57.01905 | 9.77732 | 3296 ft | 198 kts | 166° |
| 2026-04-28 15:16 | 57.00566 | 9.78352 | 3482 ft | 200 kts | 166° |
| 2026-04-28 15:16 | 56.99211 | 9.78992 | 3654 ft | 202 kts | 165° |
| 2026-04-28 15:16 | 56.97830 | 9.79633 | 3850 ft | 207 kts | 166° |
| 2026-04-28 15:16 | 56.96424 | 9.80259 | 3981 ft | 219 kts | 166° |
| 2026-04-28 15:17 | 56.94897 | 9.80964 | 4166 ft | 236 kts | 166° |
| 2026-04-28 15:17 | 56.93267 | 9.81716 | 4320 ft | 247 kts | 166° |
| 2026-04-28 15:17 | 56.91591 | 9.82478 | 4566 ft | 248 kts | 166° |
| 2026-04-28 15:17 | 56.90460 | 9.82995 | 4758 ft | 248 kts | 165° |
| 2026-04-28 15:18 | 56.88248 | 9.84036 | 5164 ft | 248 kts | 165° |
| 2026-04-28 15:18 | 56.86566 | 9.84793 | 5452 ft | 250 kts | 166° |
| 2026-04-28 15:18 | 56.84875 | 9.85561 | 5724 ft | 251 kts | 165° |
| 2026-04-28 15:18 | 56.83731 | 9.86091 | 5901 ft | 251 kts | 165° |
| 2026-04-28 15:19 | 56.82060 | 9.86855 | 6214 ft | 251 kts | 165° |
| 2026-04-28 15:19 | 56.80364 | 9.87636 | 6517 ft | 252 kts | 165° |
| 2026-04-28 15:19 | 56.78658 | 9.88398 | 6814 ft | 253 kts | 165° |
| 2026-04-28 15:19 | 56.76951 | 9.89192 | 7102 ft | 254 kts | 165° |
| 2026-04-28 15:20 | 56.75233 | 9.89958 | 7403 ft | 254 kts | 165° |
| 2026-04-28 15:20 | 56.73515 | 9.90752 | 7706 ft | 255 kts | 165° |
| 2026-04-28 15:20 | 56.71789 | 9.91538 | 8005 ft | 256 kts | 165° |
| 2026-04-28 15:20 | 56.70058 | 9.92320 | 8311 ft | 256 kts | 165° |
| 2026-04-28 15:21 | 56.68326 | 9.93108 | 8628 ft | 257 kts | 165° |
| 2026-04-28 15:21 | 56.66585 | 9.93885 | 8922 ft | 258 kts | 165° |
| 2026-04-28 15:21 | 56.64844 | 9.94687 | 9236 ft | 258 kts | 165° |
| 2026-04-28 15:21 | 56.63098 | 9.95474 | 9562 ft | 259 kts | 165° |
| 2026-04-28 15:22 | 56.61349 | 9.96261 | 9884 ft | 259 kts | 165° |
| 2026-04-28 15:22 | 56.59594 | 9.97054 | 10217 ft | 261 kts | 165° |
| 2026-04-28 15:22 | 56.57830 | 9.97853 | 10528 ft | 261 kts | 165° |
| 2026-04-28 15:22 | 56.56057 | 9.98616 | 10822 ft | 263 kts | 168° |
| 2026-04-28 15:23 | 56.54250 | 9.99119 | 11184 ft | 261 kts | 172° |
| 2026-04-28 15:23 | 56.52461 | 9.99485 | 11610 ft | 258 kts | 174° |
| 2026-04-28 15:23 | 56.50642 | 9.99531 | 11813 ft | 266 kts | 182° |
| 2026-04-28 15:23 | 56.48764 | 9.99453 | 11904 ft | 274 kts | 179° |
| 2026-04-28 15:24 | 56.46831 | 9.99498 | 11956 ft | 281 kts | 180° |
| 2026-04-28 15:24 | 56.44854 | 9.99478 | 11977 ft | 287 kts | 181° |
| 2026-04-28 15:24 | 56.42845 | 9.99478 | 11987 ft | 291 kts | 180° |
| 2026-04-28 15:24 | 56.40813 | 9.99484 | 11997 ft | 293 kts | 180° |
| 2026-04-28 15:25 | 56.38766 | 9.99473 | 11991 ft | 295 kts | 180° |
| 2026-04-28 15:25 | 56.36708 | 9.99478 | 11989 ft | 296 kts | 180° |
| 2026-04-28 15:25 | 56.34649 | 9.99474 | 11987 ft | 296 kts | 180° |
| 2026-04-28 15:25 | 56.32585 | 9.99473 | 11991 ft | 297 kts | 180° |
| 2026-04-28 15:26 | 56.30861 | 9.99471 | 11992 ft | 297 kts | 180° |
| 2026-04-28 15:26 | 56.28793 | 9.99467 | 11992 ft | 297 kts | 180° |
| 2026-04-28 15:26 | 56.26724 | 9.99467 | 11991 ft | 297 kts | 180° |
| 2026-04-28 15:26 | 56.24677 | 9.99462 | 11988 ft | 297 kts | 180° |
| 2026-04-28 15:27 | 56.22610 | 9.99463 | 11992 ft | 297 kts | 180° |
| 2026-04-28 15:27 | 56.20544 | 9.99457 | 11990 ft | 297 kts | 180° |
| 2026-04-28 15:27 | 56.18477 | 9.99458 | 11991 ft | 297 kts | 180° |
| 2026-04-28 15:27 | 56.16410 | 9.99452 | 11994 ft | 297 kts | 180° |
| 2026-04-28 15:28 | 56.14348 | 9.99448 | 11993 ft | 297 kts | 180° |
| 2026-04-28 15:28 | 56.12296 | 9.99091 | 11991 ft | 296 kts | 192° |
| 2026-04-28 15:28 | 56.10308 | 9.98152 | 11985 ft | 296 kts | 199° |
| 2026-04-28 15:28 | 56.08376 | 9.96878 | 11986 ft | 295 kts | 204° |
| 2026-04-28 15:29 | 56.06509 | 9.95473 | 11984 ft | 295 kts | 205° |
| 2026-04-28 15:29 | 56.04643 | 9.93972 | 11995 ft | 294 kts | 210° |
| 2026-04-28 15:29 | 56.02884 | 9.92119 | 11994 ft | 294 kts | 214° |
| 2026-04-28 15:29 | 56.01107 | 9.90314 | 11980 ft | 294 kts | 210° |
| 2026-04-28 15:30 | 55.99322 | 9.88530 | 11941 ft | 295 kts | 213° |
| 2026-04-28 15:30 | 55.97522 | 9.86676 | 11732 ft | 301 kts | 212° |
| 2026-04-28 15:30 | 55.95687 | 9.84832 | 11535 ft | 303 kts | 214° |
| 2026-04-28 15:30 | 55.93915 | 9.82793 | 11329 ft | 304 kts | 216° |
| 2026-04-28 15:31 | 55.92195 | 9.80634 | 11132 ft | 299 kts | 218° |
| 2026-04-28 15:31 | 55.90430 | 9.78689 | 10922 ft | 298 kts | 211° |
| 2026-04-28 15:31 | 55.88596 | 9.76992 | 10730 ft | 294 kts | 208° |
| 2026-04-28 15:31 | 55.86778 | 9.75450 | 10528 ft | 286 kts | 205° |
| 2026-04-28 15:32 | 55.84984 | 9.74150 | 10329 ft | 265 kts | 201° |
| 2026-04-28 15:32 | 55.83352 | 9.72928 | 10078 ft | 244 kts | 219° |
| 2026-04-28 15:32 | 55.82271 | 9.70760 | 9806 ft | 236 kts | 239° |
| 2026-04-28 15:32 | 55.81294 | 9.68360 | 9554 ft | 243 kts | 237° |
| 2026-04-28 15:33 | 55.80222 | 9.66003 | 9304 ft | 247 kts | 232° |
| 2026-04-28 15:33 | 55.79062 | 9.63760 | 9064 ft | 243 kts | 229° |
| 2026-04-28 15:33 | 55.77888 | 9.61632 | 8799 ft | 239 kts | 227° |
| 2026-04-28 15:33 | 55.76692 | 9.59637 | 8630 ft | 233 kts | 221° |
| 2026-04-28 15:34 | 55.75450 | 9.57862 | 8548 ft | 225 kts | 221° |
| 2026-04-28 15:34 | 55.74268 | 9.56078 | 8460 ft | 227 kts | 223° |
| 2026-04-28 15:34 | 55.73078 | 9.54258 | 8084 ft | 222 kts | 222° |
| 2026-04-28 15:34 | 55.71912 | 9.52545 | 7637 ft | 214 kts | 221° |
| 2026-04-28 15:35 | 55.70757 | 9.50827 | 6976 ft | 219 kts | 222° |
| 2026-04-28 15:35 | 55.68405 | 9.47315 | 5787 ft | 224 kts | 221° |
| 2026-04-28 15:35 | 55.67215 | 9.45544 | 5340 ft | 227 kts | 222° |
| 2026-04-28 15:36 | 55.66007 | 9.43729 | 4863 ft | 229 kts | 222° |
| 2026-04-28 15:36 | 55.64784 | 9.41917 | 4389 ft | 229 kts | 221° |
| 2026-04-28 15:36 | 55.63562 | 9.40107 | 3934 ft | 229 kts | 221° |
| 2026-04-28 15:36 | 55.62369 | 9.38328 | 3523 ft | 216 kts | 221° |
| 2026-04-28 15:37 | 55.61272 | 9.36712 | 3180 ft | 202 kts | 220° |
| 2026-04-28 15:37 | 55.60212 | 9.35155 | 2840 ft | 189 kts | 220° |
| 2026-04-28 15:37 | 55.59231 | 9.33707 | 2598 ft | 176 kts | 220° |
| 2026-04-28 15:37 | 55.58331 | 9.32364 | 2454 ft | 171 kts | 220° |
| 2026-04-28 15:38 | 55.57384 | 9.30972 | 2396 ft | 180 kts | 219° |
| 2026-04-28 15:38 | 55.56426 | 9.29548 | 2347 ft | 179 kts | 219° |
| 2026-04-28 15:38 | 55.55539 | 9.28221 | 2327 ft | 160 kts | 220° |
| 2026-04-28 15:38 | 55.54688 | 9.26969 | 2337 ft | 171 kts | 218° |
| 2026-04-28 15:39 | 55.53689 | 9.25532 | 2339 ft | 196 kts | 220° |
| 2026-04-28 15:39 | 55.52646 | 9.23944 | 2396 ft | 200 kts | 220° |
| 2026-04-28 15:39 | 55.51632 | 9.22452 | 2385 ft | 178 kts | 219° |
| 2026-04-28 15:39 | 55.50728 | 9.21141 | 2370 ft | 159 kts | 220° |
| 2026-04-28 15:40 | 55.49914 | 9.19953 | 2332 ft | 146 kts | 220° |
| 2026-04-28 15:40 | 55.49160 | 9.18840 | 2292 ft | 147 kts | 219° |
| 2026-04-28 15:40 | 55.48253 | 9.17524 | 2343 ft | 186 kts | 220° |
| 2026-04-28 15:40 | 55.47212 | 9.15957 | 2356 ft | 206 kts | 220° |
| 2026-04-28 15:41 | 55.46085 | 9.14298 | 2355 ft | 209 kts | 219° |
| 2026-04-28 15:41 | 55.45005 | 9.12825 | 2346 ft | 184 kts | 214° |
| 2026-04-28 15:41 | 55.43964 | 9.11818 | 2374 ft | 158 kts | 204° |
| 2026-04-28 15:41 | 55.42997 | 9.11024 | 2381 ft | 152 kts | 201° |
| 2026-04-28 15:42 | 55.42045 | 9.10442 | 2401 ft | 140 kts | 192° |
| 2026-04-28 15:42 | 55.41098 | 9.10179 | 2330 ft | 133 kts | 182° |
| 2026-04-28 15:42 | 55.40168 | 9.10062 | 2349 ft | 136 kts | 179° |
| 2026-04-28 15:42 | 55.39231 | 9.10083 | 2350 ft | 135 kts | 169° |
| 2026-04-28 15:43 | 55.38304 | 9.10396 | 2361 ft | 136 kts | 159° |
| 2026-04-28 15:43 | 55.37396 | 9.10831 | 2343 ft | 134 kts | 160° |
| 2026-04-28 15:43 | 55.36547 | 9.11366 | 2376 ft | 128 kts | 153° |
| 2026-04-28 15:43 | 55.35780 | 9.12164 | 2390 ft | 129 kts | 141° |
| 2026-04-28 15:44 | 55.35041 | 9.13046 | 2339 ft | 127 kts | 140° |
| 2026-04-28 15:44 | 55.34357 | 9.13959 | 2347 ft | 125 kts | 132° |
| 2026-04-28 15:44 | 55.33772 | 9.15128 | 2390 ft | 129 kts | 120° |
| 2026-04-28 15:44 | 55.33244 | 9.16416 | 2405 ft | 132 kts | 120° |
| 2026-04-28 15:45 | 55.32741 | 9.17774 | 2415 ft | 133 kts | 112° |
| 2026-04-28 15:45 | 55.32351 | 9.19212 | 2391 ft | 131 kts | 104° |
| 2026-04-28 15:45 | 55.32097 | 9.20742 | 2333 ft | 127 kts | 99° |
| 2026-04-28 15:45 | 55.31861 | 9.22183 | 2366 ft | 120 kts | 101° |
| 2026-04-28 15:46 | 55.31613 | 9.23582 | 2362 ft | 120 kts | 102° |
| 2026-04-28 15:46 | 55.31357 | 9.24868 | 2349 ft | 113 kts | 104° |
| 2026-04-28 15:46 | 55.31282 | 9.26090 | 2367 ft | 91 kts | 49° |
| 2026-04-28 15:46 | 55.31849 | 9.26494 | 2374 ft | 90 kts | 23° |
| 2026-04-28 15:47 | 55.32480 | 9.26921 | 2356 ft | 102 kts | 21° |
| 2026-04-28 15:47 | 55.33173 | 9.27308 | 2378 ft | 106 kts | 18° |
| 2026-04-28 15:47 | 55.33900 | 9.27694 | 2403 ft | 109 kts | 18° |
| 2026-04-28 15:47 | 55.34625 | 9.28086 | 2356 ft | 111 kts | 18° |
| 2026-04-28 15:48 | 55.35369 | 9.28490 | 2334 ft | 109 kts | 18° |
| 2026-04-28 15:48 | 55.36092 | 9.28899 | 2308 ft | 110 kts | 20° |
| 2026-04-28 15:48 | 55.36775 | 9.29293 | 2265 ft | 98 kts | 19° |
| 2026-04-28 15:48 | 55.37421 | 9.29642 | 2148 ft | 101 kts | 18° |
| 2026-04-28 15:49 | 55.38104 | 9.30002 | 1944 ft | 102 kts | 20° |
| 2026-04-28 15:49 | 55.38760 | 9.30377 | 1645 ft | 99 kts | 20° |
| 2026-04-28 15:49 | 55.39412 | 9.30747 | 1329 ft | 98 kts | 20° |
| 2026-04-28 15:49 | 55.40077 | 9.31106 | 889 ft | 105 kts | 21° |
| 2026-04-28 15:50 | 55.40791 | 9.31486 | 488 ft | 103 kts | 24° |
| 2026-04-28 15:50 | 55.41419 | 9.31835 | 384 ft | 89 kts | 24° |
| 2026-04-28 15:50 | 55.42090 | 9.32207 | 390 ft | 106 kts | 22° |
| 2026-04-28 15:50 | 55.42781 | 9.32611 | 240 ft | 104 kts | 26° |
| 2026-04-28 15:51 | 55.43421 | 9.32972 | 147 ft | 87 kts | 25° |
| 2026-04-28 15:51 | 55.44036 | 9.33297 | 339 ft | 106 kts | 20° |
| 2026-04-28 15:51 | 55.44855 | 9.33668 | 583 ft | 137 kts | 19° |
| 2026-04-28 15:51 | 55.45824 | 9.34143 | 826 ft | 147 kts | 19° |
| 2026-04-28 15:52 | 55.46809 | 9.34106 | 1162 ft | 149 kts | 334° |
| 2026-04-28 15:52 | 55.47285 | 9.32533 | 1489 ft | 156 kts | 273° |
| 2026-04-28 15:52 | 55.47161 | 9.30621 | 1775 ft | 159 kts | 263° |
| 2026-04-28 15:52 | 55.46952 | 9.28671 | 2039 ft | 162 kts | 255° |
| 2026-04-28 15:53 | 55.46241 | 9.27253 | 2181 ft | 158 kts | 203° |
| 2026-04-28 15:53 | 55.45247 | 9.26513 | 2208 ft | 150 kts | 200° |
| 2026-04-28 15:53 | 55.44351 | 9.25889 | 2232 ft | 128 kts | 200° |
| 2026-04-28 15:53 | 55.43457 | 9.25306 | 2298 ft | 146 kts | 198° |
| 2026-04-28 15:54 | 55.42455 | 9.24684 | 2292 ft | 158 kts | 197° |
| 2026-04-28 15:54 | 55.41398 | 9.24021 | 2325 ft | 165 kts | 198° |
| 2026-04-28 15:54 | 55.40359 | 9.23422 | 2326 ft | 146 kts | 184° |
| 2026-04-28 15:54 | 55.39569 | 9.24022 | 2341 ft | 117 kts | 119° |
| 2026-04-28 15:55 | 55.39129 | 9.25295 | 1959 ft | 127 kts | 113° |
| 2026-04-28 15:55 | 55.38730 | 9.26680 | 1669 ft | 123 kts | 111° |
| 2026-04-28 15:55 | 55.38492 | 9.28004 | 1569 ft | 102 kts | 72° |
| 2026-04-28 15:55 | 55.38948 | 9.28809 | 1416 ft | 95 kts | 39° |
| 2026-04-28 15:56 | 55.39472 | 9.29485 | 1200 ft | 93 kts | 38° |
| 2026-04-28 15:56 | 55.39950 | 9.30163 | 1066 ft | 88 kts | 42° |
| 2026-04-28 15:56 | 55.40425 | 9.30839 | 854 ft | 89 kts | 41° |
| 2026-04-28 15:56 | 55.40867 | 9.31369 | 765 ft | 94 kts | 35° |
| 2026-04-28 15:57 | 55.41466 | 9.31810 | 590 ft | 96 kts | 29° |
| 2026-04-28 15:57 | 55.42117 | 9.32239 | 435 ft | 102 kts | 26° |
| 2026-04-28 15:57 | 55.42396 | 9.32395 | 355 ft | 101 kts | 34° |
| 2026-04-28 15:57 | 55.43009 | 9.32737 | 175 ft | 97 kts | 12° |
| 2026-04-28 15:58 | 55.43589 | 9.33073 | 142 ft | 60 kts | 17° |
| 2026-04-28 15:58 | 55.43807 | 9.33189 | 141 ft | 15 kts | 9° |
| 2026-04-28 15:58 | 55.43844 | 9.33161 | 142 ft | 11 kts | 286° |
| 2026-04-28 15:58 | 55.43845 | 9.33013 | 142 ft | 13 kts | 248° |
| 2026-04-28 15:59 | 55.43831 | 9.32917 | 141 ft | 0 kts | 247° |
| 2026-04-28 15:59 | 55.43819 | 9.32907 | 141 ft | 0 kts | 160° |